Time;durP1;ratioP1;P1;durP2;ratioP2;P2;SDS_P1;SDS_P2;PMS_P1;PMS_P2;Temp;Humidity;BMP_temperature;BMP_pressure;BME280_temperature;BME280_humidity;BME280_pressure;Samples;Min_cycle;Max_cycle;Signal;HPM_P1;HPM_P2
2023/01/22 00:02:03;;;;;;;28.92;17.60;;;-0.40;99.90;;;;;;5048876;28;20040;-57
2023/01/22 00:04:28;;;;;;;29.27;17.48;;;-0.40;99.90;;;;;;5047332;28;20087;-55
2023/01/22 00:06:54;;;;;;;27.50;17.47;;;-0.40;99.90;;;;;;5048442;28;20568;-55
2023/01/22 00:09:21;;;;;;;25.47;16.87;;;-0.40;99.90;;;;;;5046302;28;20041;-56
2023/01/22 00:11:47;;;;;;;29.17;17.33;;;-0.40;99.90;;;;;;5046930;28;20047;-56
2023/01/22 00:14:13;;;;;;;28.25;18.10;;;-0.40;99.90;;;;;;5047743;28;20041;-55
2023/01/22 00:16:40;;;;;;;28.33;18.07;;;-0.40;99.90;;;;;;5048399;28;20209;-54
2023/01/22 00:19:05;;;;;;;;;;;-0.40;99.90;;;;;;5046654;28;20040;-56
2023/01/22 00:21:31;;;;;;;26.52;15.68;;;-0.40;99.90;;;;;;5048484;28;20109;-56
2023/01/22 00:23:57;;;;;;;31.97;16.57;;;-0.40;99.90;;;;;;5047249;28;20033;-55
2023/01/22 00:26:22;;;;;;;27.43;17.80;;;-0.40;99.90;;;;;;5048283;28;20029;-55
2023/01/22 00:28:48;;;;;;;29.67;16.90;;;-0.40;99.90;;;;;;5043521;28;20470;-56
2023/01/22 00:31:15;;;;;;;28.93;17.87;;;-0.40;99.90;;;;;;5046088;28;20406;-56
2023/01/22 00:33:40;;;;;;;28.73;16.38;;;-0.40;99.90;;;;;;5043771;28;20052;-57
2023/01/22 00:36:09;;;;;;;26.55;17.20;;;-0.40;99.90;;;;;;5048480;28;20036;-57
2023/01/22 00:38:34;;;;;;;28.60;18.38;;;-0.40;99.90;;;;;;5048584;28;20052;-56
2023/01/22 00:41:04;;;;;;;31.20;17.87;;;-0.40;99.90;;;;;;5048602;28;21888;-56
2023/01/22 00:43:32;;;;;;;31.17;17.90;;;-0.40;99.90;;;;;;5045920;28;20029;-57
2023/01/22 00:45:58;;;;;;;30.73;17.80;;;-0.40;99.90;;;;;;5047211;28;20086;-54
2023/01/22 00:48:24;;;;;;;29.00;18.13;;;-0.40;99.90;;;;;;5046258;28;20510;-58
2023/01/22 00:50:49;;;;;;;24.83;16.67;;;-0.40;99.90;;;;;;5048501;28;20041;-55
2023/01/22 00:53:15;;;;;;;33.60;19.77;;;-0.40;99.90;;;;;;5047510;28;20090;-56
2023/01/22 00:55:53;;;;;;;29.20;19.10;;;-0.40;99.90;;;;;;5047844;28;20036;-56
2023/01/22 00:58:19;;;;;;;30.13;18.60;;;-0.40;99.90;;;;;;5045484;28;20348;-57
2023/01/22 01:00:44;;;;;;;38.13;20.10;;;-0.40;99.90;;;;;;5047181;28;20040;-58
2023/01/22 01:03:26;;;;;;;29.20;18.80;;;-0.40;99.90;;;;;;5045020;28;20636;-56
2023/01/22 01:05:53;;;;;;;33.63;17.60;;;-0.40;99.90;;;;;;5047734;28;20111;-55
2023/01/22 01:08:18;;;;;;;29.25;18.58;;;-0.40;99.90;;;;;;5047784;28;20036;-56
2023/01/22 01:10:44;;;;;;;29.87;19.37;;;-0.40;99.90;;;;;;5050823;28;20509;-56
2023/01/22 01:13:10;;;;;;;27.13;18.00;;;-0.50;99.90;;;;;;5051803;28;20101;-57
2023/01/22 01:15:36;;;;;;;31.75;17.63;;;-0.40;99.90;;;;;;5051783;28;20076;-56
2023/01/22 01:18:02;;;;;;;39.87;20.50;;;-0.50;99.90;;;;;;5052063;28;20486;-56
2023/01/22 01:20:30;;;;;;;35.28;21.33;;;-0.40;99.90;;;;;;5051125;28;20661;-54
2023/01/22 01:22:56;;;;;;;31.20;19.45;;;-0.40;99.90;;;;;;5049123;28;20037;-55
2023/01/22 01:25:21;;;;;;;39.67;19.47;;;-0.40;99.90;;;;;;5051515;28;20402;-57
2023/01/22 01:27:47;;;;;;;31.70;19.70;;;-0.30;99.90;;;;;;5051724;28;20052;-57
2023/01/22 01:30:13;;;;;;;31.40;18.07;;;-0.30;99.90;;;;;;5050501;28;20410;-56
2023/01/22 01:32:38;;;;;;;33.70;20.87;;;-0.20;99.90;;;;;;5052104;28;20064;-57
2023/01/22 01:35:04;;;;;;;31.80;19.57;;;-0.20;99.90;;;;;;5050552;28;20037;-57
2023/01/22 01:37:30;;;;;;;31.90;19.48;;;-0.20;99.90;;;;;;5051150;28;20155;-56
2023/01/22 01:39:55;;;;;;;33.10;19.10;;;-0.10;99.90;;;;;;5051980;28;20123;-56
2023/01/22 01:42:29;;;;;;;31.33;20.57;;;-0.10;99.90;;;;;;5050780;28;20118;-56
2023/01/22 01:45:16;;;;;;;33.58;20.30;;;-0.10;99.90;;;;;;5048387;28;20041;-56
2023/01/22 01:47:42;;;;;;;32.60;19.27;;;-0.10;99.90;;;;;;5050806;28;20461;-56
2023/01/22 01:50:08;;;;;;;32.57;20.43;;;0.00;99.90;;;;;;5052010;28;20033;-54
2023/01/22 01:52:34;;;;;;;37.45;21.23;;;0.00;99.90;;;;;;5051834;28;20332;-57
2023/01/22 01:55:00;;;;;;;34.25;19.77;;;0.00;99.90;;;;;;5049959;28;20036;-55
2023/01/22 01:57:29;;;;;;;29.53;19.30;;;0.00;99.90;;;;;;5050907;28;20132;-56
2023/01/22 01:59:56;;;;;;;34.00;19.67;;;0.00;99.90;;;;;;5051440;28;20072;-57
2023/01/22 02:02:22;;;;;;;34.05;19.73;;;0.00;99.90;;;;;;5051514;28;20049;-57
2023/01/22 02:04:49;;;;;;;29.00;19.80;;;0.00;99.90;;;;;;5047533;28;20093;-57
2023/01/22 02:07:15;;;;;;;27.65;18.17;;;0.00;99.90;;;;;;5051012;28;20311;-59
2023/01/22 02:09:41;;;;;;;29.35;17.45;;;0.00;99.90;;;;;;5050749;28;20474;-57
2023/01/22 02:12:07;;;;;;;31.43;18.73;;;0.00;99.90;;;;;;5051422;28;20039;-56
2023/01/22 02:14:37;;;;;;;40.10;19.42;;;0.00;99.90;;;;;;5049374;28;20037;-55
2023/01/22 02:17:17;;;;;;;27.75;18.45;;;0.00;99.90;;;;;;5049585;28;20040;-57
2023/01/22 02:19:45;;;;;;;26.20;16.05;;;0.00;99.90;;;;;;5048446;28;20127;-55
2023/01/22 02:22:29;;;;;;;30.15;18.17;;;0.00;99.90;;;;;;5050527;28;20033;-56
2023/01/22 02:24:57;;;;;;;24.05;16.25;;;0.00;99.90;;;;;;5049240;28;20540;-56
2023/01/22 02:27:23;;;;;;;25.45;17.67;;;0.10;99.90;;;;;;5050443;28;20029;-57
2023/01/22 02:29:50;;;;;;;26.83;17.73;;;0.10;99.90;;;;;;5050898;28;20581;-57
2023/01/22 02:32:16;;;;;;;26.83;16.25;;;0.10;99.90;;;;;;5050840;28;20114;-54
2023/01/22 02:34:41;;;;;;;26.33;17.00;;;0.10;99.90;;;;;;5049462;28;20072;-55
2023/01/22 02:37:07;;;;;;;25.50;15.40;;;0.10;99.90;;;;;;5050388;28;20142;-56
2023/01/22 02:39:33;;;;;;;23.98;16.10;;;0.10;99.90;;;;;;5050716;28;20474;-56
2023/01/22 02:42:00;;;;;;;23.90;15.13;;;0.20;99.90;;;;;;5050509;28;20036;-56
2023/01/22 02:44:25;;;;;;;;;;;0.20;99.90;;;;;;5047513;28;20068;-56
2023/01/22 02:46:51;;;;;;;23.08;14.82;;;0.20;99.90;;;;;;5048681;28;19970;-58
2023/01/22 02:49:16;;;;;;;21.63;13.37;;;0.20;99.90;;;;;;5049034;28;20041;-56
2023/01/22 02:51:42;;;;;;;18.77;13.30;;;0.30;99.90;;;;;;5050803;28;20036;-56
2023/01/22 02:54:07;;;;;;;17.30;12.47;;;0.30;99.90;;;;;;5048863;28;20445;-54
2023/01/22 02:56:33;;;;;;;19.30;13.33;;;0.30;99.90;;;;;;5050431;28;20051;-56
2023/01/22 02:59:01;;;;;;;14.75;11.55;;;0.30;99.90;;;;;;5049203;28;20414;-56
2023/01/22 03:01:26;;;;;;;17.20;12.77;;;0.40;99.90;;;;;;5050056;28;20043;-55
2023/01/22 03:04:12;;;;;;;17.83;12.18;;;0.40;99.90;;;;;;5049272;28;20115;-56
2023/01/22 03:06:43;;;;;;;17.10;11.15;;;0.40;99.90;;;;;;5048586;28;20127;-56
2023/01/22 03:09:11;;;;;;;16.33;10.27;;;0.50;99.90;;;;;;5065126;28;20128;-57
2023/01/22 03:11:39;;;;;;;20.05;10.57;;;0.50;99.90;;;;;;5049860;28;20044;-54
2023/01/22 03:22:18;;;;;;;15.48;10.82;;;0.60;99.90;;;;;;5049334;28;21269;-56
2023/01/22 03:24:50;;;;;;;15.83;9.77;;;0.60;99.90;;;;;;5045894;28;20033;-57
2023/01/22 03:27:17;;;;;;;16.08;11.55;;;0.60;99.90;;;;;;5047962;28;20284;-57
2023/01/22 03:29:44;;;;;;;18.92;10.70;;;0.60;99.90;;;;;;5050005;28;20174;-54
2023/01/22 03:32:09;;;;;;;;;;;0.60;99.90;;;;;;5048055;28;20040;-55
2023/01/22 03:34:35;;;;;;;13.68;9.98;;;0.60;99.90;;;;;;5048648;28;19924;-56
2023/01/22 03:37:01;;;;;;;14.13;9.77;;;0.70;99.90;;;;;;5049026;28;20179;-55
2023/01/22 03:39:27;;;;;;;12.97;9.37;;;0.60;99.90;;;;;;5046050;28;20053;-57
2023/01/22 03:41:52;;;;;;;13.93;9.10;;;0.70;99.90;;;;;;5049541;28;20534;-57
2023/01/22 03:44:18;;;;;;;10.20;8.75;;;0.60;99.90;;;;;;5047491;28;20033;-57
2023/01/22 03:46:44;;;;;;;12.70;9.27;;;0.70;99.90;;;;;;5049497;28;20115;-56
2023/01/22 03:49:12;;;;;;;12.63;9.10;;;0.70;99.90;;;;;;5049312;28;20040;-57
2023/01/22 03:51:38;;;;;;;17.10;9.50;;;0.70;99.90;;;;;;5049187;28;20041;-55
2023/01/22 03:54:04;;;;;;;11.63;8.60;;;0.70;99.90;;;;;;5048310;28;20596;-57
2023/01/22 03:56:29;;;;;;;11.30;8.80;;;0.70;99.90;;;;;;5049414;28;20039;-56
2023/01/22 03:58:55;;;;;;;10.67;8.53;;;0.70;99.90;;;;;;5049192;28;20041;-56
2023/01/22 04:01:24;;;;;;;15.75;10.43;;;0.70;99.90;;;;;;5049545;28;20120;-55
2023/01/22 04:03:50;;;;;;;13.43;9.15;;;0.70;99.90;;;;;;5048200;28;20116;-56
2023/01/22 04:06:16;;;;;;;10.98;8.38;;;0.70;99.90;;;;;;5048433;28;20029;-57
2023/01/22 04:08:44;;;;;;;13.05;8.35;;;0.70;99.90;;;;;;5047460;28;20071;-56
2023/01/22 04:11:10;;;;;;;11.75;8.25;;;0.70;99.90;;;;;;5048909;28;20043;-56
2023/01/22 04:13:37;;;;;;;9.98;8.35;;;0.70;99.90;;;;;;5047543;28;20095;-57
2023/01/22 04:16:04;;;;;;;11.68;8.43;;;0.80;99.90;;;;;;5047585;28;20060;-56
2023/01/22 04:18:30;;;;;;;10.90;8.35;;;0.80;99.90;;;;;;5047917;28;20409;-57
2023/01/22 04:20:55;;;;;;;10.98;8.07;;;0.80;99.90;;;;;;5048643;28;20078;-55
2023/01/22 04:23:22;;;;;;;11.45;8.48;;;0.80;99.90;;;;;;5047990;28;20036;-56
2023/01/22 04:25:48;;;;;;;;;;;0.80;99.90;;;;;;5046382;28;20033;-56
2023/01/22 04:28:15;;;;;;;14.75;9.93;;;0.80;99.90;;;;;;5048406;28;20297;-56
2023/01/22 04:30:43;;;;;;;12.10;8.73;;;0.80;99.90;;;;;;5048676;28;20283;-57
2023/01/22 04:33:09;;;;;;;10.82;9.48;;;0.80;99.90;;;;;;5047740;28;20045;-56
2023/01/22 04:35:36;;;;;;;11.77;8.68;;;0.80;99.90;;;;;;5046843;28;20505;-56
2023/01/22 04:38:02;;;;;;;;;;;0.80;99.90;;;;;;5048586;28;20063;-56
2023/01/22 04:40:28;;;;;;;13.52;9.75;;;0.80;99.90;;;;;;5048874;28;19921;-55
2023/01/22 04:42:53;;;;;;;11.10;10.00;;;0.80;99.90;;;;;;5048066;28;20132;-56
2023/01/22 04:45:19;;;;;;;11.77;9.87;;;0.80;99.90;;;;;;5046898;28;20033;-57
2023/01/22 04:47:47;;;;;;;9.40;8.32;;;0.80;99.90;;;;;;5048193;28;20970;-57
2023/01/22 04:50:21;;;;;;;12.80;9.40;;;0.70;99.90;;;;;;5047885;28;20491;-56
2023/01/22 04:52:49;;;;;;;10.88;9.27;;;0.80;99.90;;;;;;5045958;28;20091;-57
2023/01/22 04:55:15;;;;;;;10.15;9.20;;;0.70;99.90;;;;;;5047485;28;20040;-57
2023/01/22 04:57:41;;;;;;;9.70;8.73;;;0.80;99.90;;;;;;5048066;28;20029;-56
2023/01/22 05:00:08;;;;;;;8.97;8.17;;;0.70;99.90;;;;;;5048311;28;20390;-56
2023/01/22 05:02:34;;;;;;;11.05;9.95;;;0.80;99.90;;;;;;5047851;28;20048;-56
2023/01/22 05:04:59;;;;;;;10.10;9.10;;;0.80;99.90;;;;;;5047472;28;20029;-57
2023/01/22 05:07:25;;;;;;;13.37;9.77;;;0.80;99.90;;;;;;5047208;28;20032;-58
2023/01/22 05:09:50;;;;;;;10.00;9.00;;;0.80;99.90;;;;;;5046862;28;20517;-56
2023/01/22 05:12:16;;;;;;;10.67;9.40;;;0.80;99.90;;;;;;5047944;28;20248;-57
2023/01/22 05:14:42;;;;;;;11.30;9.50;;;0.80;99.90;;;;;;5046937;28;20044;-56
2023/01/22 05:17:07;;;;;;;10.40;9.33;;;0.80;99.90;;;;;;5045878;28;20037;-57
2023/01/22 05:19:34;;;;;;;9.20;8.30;;;0.80;99.90;;;;;;5048248;28;20037;-57
2023/01/22 05:22:00;;;;;;;11.73;8.55;;;0.80;99.90;;;;;;5047748;28;20033;-56
2023/01/22 05:24:27;;;;;;;8.43;7.60;;;0.80;99.90;;;;;;5046825;28;20067;-57
2023/01/22 05:26:52;;;;;;;9.07;8.02;;;0.80;99.90;;;;;;5045429;28;20119;-56
2023/01/22 05:29:18;;;;;;;10.03;8.20;;;0.80;99.90;;;;;;5046270;28;20124;-56
2023/01/22 05:31:44;;;;;;;9.93;7.93;;;0.80;99.90;;;;;;5047408;28;20060;-54
2023/01/22 05:34:09;;;;;;;10.83;8.00;;;0.80;99.90;;;;;;5047207;28;20044;-57
2023/01/22 05:36:35;;;;;;;9.30;8.50;;;0.80;99.90;;;;;;5048137;28;20033;-56
2023/01/22 05:39:00;;;;;;;9.10;7.90;;;0.80;99.90;;;;;;5047786;28;20036;-56
2023/01/22 05:41:26;;;;;;;9.50;7.53;;;0.80;99.90;;;;;;5048156;28;20032;-55
2023/01/22 05:43:52;;;;;;;9.95;8.05;;;0.80;99.90;;;;;;5045924;28;20036;-56
2023/01/22 05:46:17;;;;;;;8.90;8.07;;;0.80;99.90;;;;;;5046552;28;20379;-57
2023/01/22 05:48:43;;;;;;;8.43;7.63;;;0.80;99.90;;;;;;5049127;28;20036;-56
2023/01/22 05:51:09;;;;;;;9.20;7.33;;;0.80;99.90;;;;;;5047628;28;20047;-56
2023/01/22 05:53:35;;;;;;;10.50;8.25;;;0.80;99.90;;;;;;5047015;28;20040;-57
2023/01/22 05:56:01;;;;;;;9.07;8.15;;;0.80;99.90;;;;;;5048292;28;20444;-57
2023/01/22 05:58:28;;;;;;;8.93;7.45;;;0.80;99.90;;;;;;5051308;28;20044;-57
2023/01/22 06:00:54;;;;;;;10.70;7.78;;;0.80;99.90;;;;;;5050838;28;20040;-56
2023/01/22 06:03:20;;;;;;;9.27;7.27;;;0.80;99.90;;;;;;5050944;28;20044;-56
2023/01/22 06:05:45;;;;;;;10.23;7.03;;;0.70;99.90;;;;;;5051314;28;20298;-56
2023/01/22 06:08:11;;;;;;;9.07;7.30;;;0.70;99.90;;;;;;5051474;28;20090;-56
2023/01/22 06:10:37;;;;;;;9.43;7.30;;;0.70;99.90;;;;;;5051340;28;20510;-56
2023/01/22 06:13:02;;;;;;;10.10;7.05;;;0.70;99.90;;;;;;5050256;28;20028;-56
2023/01/22 06:15:28;;;;;;;8.13;7.13;;;0.70;99.90;;;;;;5050781;28;20032;-56
2023/01/22 06:17:53;;;;;;;10.17;8.00;;;0.80;99.90;;;;;;5050580;28;20040;-55
2023/01/22 06:20:19;;;;;;;8.30;7.10;;;0.80;99.90;;;;;;5051447;28;20072;-56
2023/01/22 06:22:49;;;;;;;11.27;8.53;;;0.80;99.90;;;;;;5050915;28;20034;-56
2023/01/22 06:25:14;;;;;;;9.50;8.00;;;0.80;99.90;;;;;;5047897;28;20163;-56
2023/01/22 06:27:40;;;;;;;10.00;9.10;;;0.80;99.90;;;;;;5050752;28;20033;-57
2023/01/22 06:30:06;;;;;;;12.47;8.67;;;0.80;99.90;;;;;;5050388;28;20040;-58
2023/01/22 06:32:31;;;;;;;8.68;7.95;;;0.80;99.90;;;;;;5051124;28;20041;-57
2023/01/22 06:34:57;;;;;;;9.13;8.23;;;0.80;99.90;;;;;;5049409;28;20043;-57
2023/01/22 06:37:23;;;;;;;8.80;7.73;;;0.80;99.90;;;;;;5050279;28;20033;-57
2023/01/22 06:39:48;;;;;;;9.97;8.00;;;0.80;99.90;;;;;;5050758;28;20033;-57
2023/01/22 06:42:14;;;;;;;8.50;7.67;;;0.80;99.90;;;;;;5050073;28;20505;-56
2023/01/22 06:44:39;;;;;;;10.27;7.57;;;0.80;99.90;;;;;;5049071;28;20511;-55
2023/01/22 06:47:05;;;;;;;8.47;7.57;;;0.80;99.90;;;;;;5049666;28;20401;-56
2023/01/22 06:49:30;;;;;;;11.07;7.87;;;0.80;99.90;;;;;;5050743;28;20037;-57
2023/01/22 06:51:56;;;;;;;7.27;6.67;;;0.80;99.90;;;;;;5050605;28;20490;-55
2023/01/22 06:54:21;;;;;;;9.80;8.03;;;0.80;99.90;;;;;;5049931;28;20041;-56
2023/01/22 06:56:47;;;;;;;9.03;8.10;;;0.80;99.90;;;;;;5050142;28;20044;-55
2023/01/22 06:59:13;;;;;;;8.27;7.47;;;0.80;99.90;;;;;;5049524;28;20502;-56
2023/01/22 07:01:38;;;;;;;10.00;8.27;;;0.70;99.90;;;;;;5050676;28;20036;-55
2023/01/22 07:04:04;;;;;;;8.57;7.33;;;0.70;99.90;;;;;;5049050;28;20052;-57
2023/01/22 07:06:29;;;;;;;9.13;7.37;;;0.70;99.90;;;;;;5050682;28;20033;-56
2023/01/22 07:08:55;;;;;;;9.90;7.30;;;0.70;99.90;;;;;;5048884;28;20041;-57
2023/01/22 07:11:22;;;;;;;9.07;7.00;;;0.70;99.90;;;;;;5050396;28;20297;-57
2023/01/22 07:13:47;;;;;;;8.85;7.80;;;0.70;99.90;;;;;;5048308;28;20076;-57
2023/01/22 07:16:13;;;;;;;8.77;8.03;;;0.70;99.90;;;;;;5050358;28;20077;-56
2023/01/22 07:18:38;;;;;;;8.60;7.87;;;0.70;99.90;;;;;;5049821;28;20048;-56
2023/01/22 07:21:05;;;;;;;8.80;7.40;;;0.70;99.90;;;;;;5050409;28;20074;-55
2023/01/22 07:23:30;;;;;;;10.63;8.35;;;0.70;99.90;;;;;;5048609;28;20094;-57
2023/01/22 07:25:56;;;;;;;10.03;8.13;;;0.70;99.90;;;;;;5049030;28;20410;-56
2023/01/22 07:28:22;;;;;;;9.13;8.23;;;0.70;99.90;;;;;;5049495;28;20036;-57
2023/01/22 07:30:47;;;;;;;13.43;8.33;;;0.70;99.90;;;;;;5065776;28;20306;-57
2023/01/22 07:33:14;;;;;;;8.57;7.70;;;0.70;99.90;;;;;;5049313;28;20063;-56
2023/01/22 07:35:40;;;;;;;11.30;8.43;;;0.70;99.90;;;;;;5048846;28;20124;-54
2023/01/22 07:38:06;;;;;;;8.90;8.10;;;0.70;99.90;;;;;;5046705;28;20037;-57
2023/01/22 07:40:32;;;;;;;9.63;8.73;;;0.70;99.90;;;;;;5049359;28;20029;-57
2023/01/22 07:42:58;;;;;;;8.77;7.88;;;0.70;99.90;;;;;;5048602;28;20025;-55
2023/01/22 07:45:24;;;;;;;10.05;9.02;;;0.70;99.90;;;;;;5049049;28;20032;-55
2023/01/22 07:47:59;;;;;;;11.30;8.60;;;0.70;99.90;;;;;;5049056;28;20040;-53
2023/01/22 07:50:30;;;;;;;14.73;9.13;;;0.70;99.90;;;;;;5049649;28;20040;-56
2023/01/22 07:52:56;;;;;;;9.48;8.15;;;0.80;99.90;;;;;;5048300;28;20040;-57
2023/01/22 07:55:22;;;;;;;9.98;8.32;;;0.80;99.90;;;;;;5048713;28;20056;-56
2023/01/22 07:57:55;;;;;;;10.45;8.32;;;0.80;99.90;;;;;;5044111;28;20124;-56
2023/01/22 08:00:21;;;;;;;9.25;8.43;;;0.80;99.90;;;;;;5050181;28;20044;-55
2023/01/22 08:02:49;;;;;;;8.73;7.30;;;0.80;99.90;;;;;;5050239;28;20505;-56
2023/01/22 08:05:15;;;;;;;9.65;8.48;;;0.80;99.90;;;;;;5049893;28;20045;-55
2023/01/22 08:07:40;;;;;;;11.55;8.45;;;0.80;99.90;;;;;;5048432;28;20079;-54
2023/01/22 08:10:07;;;;;;;8.83;7.60;;;0.80;99.90;;;;;;5048289;28;20036;-57
2023/01/22 08:12:35;;;;;;;15.07;8.45;;;0.80;99.90;;;;;;5048801;28;20482;-55
2023/01/22 08:15:00;;;;;;;8.93;8.10;;;0.80;99.90;;;;;;5047624;28;20033;-56
2023/01/22 08:17:26;;;;;;;9.57;8.67;;;0.80;99.90;;;;;;5048597;28;20114;-57
2023/01/22 08:19:52;;;;;;;8.80;7.90;;;0.80;99.90;;;;;;5047800;28;20572;-54
2023/01/22 08:22:17;;;;;;;9.00;7.60;;;0.90;99.90;;;;;;5048362;28;20079;-56
2023/01/22 08:24:43;;;;;;;16.33;7.97;;;0.90;99.90;;;;;;5047325;28;20063;-57
2023/01/22 08:27:08;;;;;;;10.47;7.23;;;0.90;99.90;;;;;;5048115;28;20439;-56
2023/01/22 08:29:34;;;;;;;11.40;8.20;;;0.90;99.90;;;;;;5048764;28;20041;-56
2023/01/22 08:31:59;;;;;;;10.77;8.27;;;0.90;99.90;;;;;;5047611;28;20072;-57
2023/01/22 08:34:25;;;;;;;8.30;7.47;;;0.90;99.90;;;;;;5047631;28;20036;-57
2023/01/22 08:36:51;;;;;;;8.57;7.73;;;0.90;99.90;;;;;;5047312;28;20037;-57
2023/01/22 08:39:16;;;;;;;8.87;7.63;;;0.90;99.90;;;;;;5047536;28;20040;-57
2023/01/22 08:41:42;;;;;;;10.63;7.87;;;0.90;99.90;;;;;;5047170;28;20094;-57
2023/01/22 08:44:11;;;;;;;9.83;7.97;;;1.00;99.90;;;;;;5047318;28;20080;-56
2023/01/22 08:46:39;;;;;;;12.15;7.78;;;1.00;99.90;;;;;;5048139;28;20037;-55
2023/01/22 08:49:05;;;;;;;9.13;8.18;;;1.00;99.90;;;;;;5048607;28;20324;-57
2023/01/22 08:51:31;;;;;;;10.82;8.75;;;1.00;99.90;;;;;;5048520;28;20045;-57
2023/01/22 08:53:57;;;;;;;10.13;7.88;;;1.00;99.90;;;;;;5046463;28;20167;-57
2023/01/22 08:56:22;;;;;;;9.00;8.10;;;1.10;99.90;;;;;;5044305;28;20509;-57
2023/01/22 08:58:49;;;;;;;9.87;7.87;;;1.10;99.90;;;;;;5046195;28;20041;-57
2023/01/22 09:01:16;;;;;;;10.18;9.23;;;1.10;99.90;;;;;;5048433;28;20033;-54
2023/01/22 09:03:42;;;;;;;10.68;8.25;;;1.10;99.90;;;;;;5045987;28;20033;-57
2023/01/22 09:06:08;;;;;;;9.98;8.10;;;1.10;99.90;;;;;;5048384;28;20051;-56
2023/01/22 09:08:34;;;;;;;13.83;8.77;;;1.20;99.90;;;;;;5047513;28;20053;-54
2023/01/22 09:10:59;;;;;;;9.95;7.65;;;1.20;99.90;;;;;;5048057;28;20037;-56
2023/01/22 09:13:25;;;;;;;11.73;9.23;;;1.10;99.90;;;;;;5047623;28;20578;-58
2023/01/22 09:15:55;;;;;;;10.47;8.70;;;1.20;99.90;;;;;;5047986;28;20136;-55
2023/01/22 09:18:21;;;;;;;9.15;8.02;;;1.20;99.90;;;;;;5047735;28;20398;-58
2023/01/22 09:20:46;;;;;;;13.67;9.13;;;1.20;99.90;;;;;;5047516;28;20041;-56
2023/01/22 09:23:12;;;;;;;11.80;8.90;;;1.20;99.90;;;;;;5046727;28;20150;-56
2023/01/22 09:25:37;;;;;;;14.20;9.10;;;1.30;99.90;;;;;;5046714;28;20472;-57
2023/01/22 09:28:06;;;;;;;12.53;8.30;;;1.30;99.90;;;;;;5043198;28;20415;-57
2023/01/22 09:30:32;;;;;;;12.90;8.80;;;1.30;99.90;;;;;;5048630;28;20037;-55
2023/01/22 09:32:57;;;;;;;11.10;9.27;;;1.30;99.90;;;;;;5047502;28;20044;-55
2023/01/22 09:35:23;;;;;;;9.67;8.40;;;1.30;99.90;;;;;;5050463;28;20025;-55
2023/01/22 09:37:49;;;;;;;14.03;8.83;;;1.40;99.90;;;;;;5050511;28;20087;-56
2023/01/22 09:40:20;;;;;;;10.23;9.23;;;1.40;99.90;;;;;;5050952;28;20064;-58
2023/01/22 09:42:46;;;;;;;9.93;8.93;;;1.40;99.90;;;;;;5052106;28;20039;-55
2023/01/22 09:45:15;;;;;;;10.87;9.57;;;1.40;99.90;;;;;;5051355;28;20025;-57
2023/01/22 09:47:47;;;;;;;13.73;10.38;;;1.40;99.90;;;;;;5051723;28;20036;-58
2023/01/22 09:50:18;;;;;;;12.82;9.65;;;1.50;99.90;;;;;;5051043;28;20069;-57
2023/01/22 09:52:45;;;;;;;10.23;9.23;;;1.50;99.90;;;;;;5051801;28;20037;-58
2023/01/22 09:55:13;;;;;;;12.32;9.30;;;1.50;99.90;;;;;;5050610;28;20082;-57
2023/01/22 09:57:45;;;;;;;10.68;9.50;;;1.50;99.90;;;;;;5051423;28;20033;-58
2023/01/22 10:00:20;;;;;;;10.70;9.60;;;1.50;99.90;;;;;;5050032;28;20041;-57
2023/01/22 10:03:00;;;;;;;11.68;8.43;;;1.50;99.90;;;;;;5051819;28;20650;-57
2023/01/22 10:05:36;;;;;;;10.10;8.73;;;1.60;99.90;;;;;;5051424;28;20228;-56
2023/01/22 10:08:13;;;;;;;10.80;9.05;;;1.60;99.90;;;;;;5051157;28;20511;-56
2023/01/22 10:10:39;;;;;;;10.70;8.98;;;1.60;99.90;;;;;;5051132;28;20032;-56
2023/01/22 10:13:19;;;;;;;12.15;9.52;;;1.60;99.90;;;;;;5049643;28;20036;-55
2023/01/22 10:15:46;;;;;;;12.57;8.10;;;1.70;99.90;;;;;;5051166;28;20129;-54
2023/01/22 10:18:29;;;;;;;14.38;10.05;;;1.70;99.90;;;;;;5050945;28;20234;-56
2023/01/22 10:20:59;;;;;;;11.35;9.05;;;1.70;99.90;;;;;;5051035;28;20037;-56
2023/01/22 10:23:25;;;;;;;10.05;8.95;;;1.70;99.90;;;;;;5048732;28;20056;-57
2023/01/22 10:26:15;;;;;;;14.25;10.18;;;1.70;99.90;;;;;;5048903;28;20082;-57
2023/01/22 10:28:50;;;;;;;10.45;9.20;;;1.70;99.90;;;;;;5050558;28;20052;-57
2023/01/22 10:31:37;;;;;;;15.02;8.93;;;1.80;99.90;;;;;;5048711;28;20394;-55
2023/01/22 10:34:34;;;;;;;13.75;9.48;;;1.80;99.90;;;;;;5049983;28;20060;-55
2023/01/22 10:37:16;;;;;;;15.00;8.57;;;1.70;99.90;;;;;;5045249;28;20048;-56
2023/01/22 10:39:43;;;;;;;10.77;9.02;;;1.70;99.90;;;;;;5049678;28;20112;-56
2023/01/22 10:42:21;;;;;;;10.63;8.38;;;1.70;99.90;;;;;;5047973;28;20064;-56
2023/01/22 10:44:48;;;;;;;11.52;8.75;;;1.70;99.90;;;;;;5049269;28;20037;-56
2023/01/22 10:47:20;;;;;;;10.40;8.88;;;1.70;99.90;;;;;;5050871;28;20086;-57
2023/01/22 10:49:47;;;;;;;10.00;9.00;;;1.80;99.90;;;;;;5050166;28;20041;-56
2023/01/22 10:52:38;;;;;;;12.48;8.80;;;1.80;99.90;;;;;;5042249;28;20068;-57
2023/01/22 10:55:04;;;;;;;10.60;9.15;;;1.80;99.90;;;;;;5050563;28;20045;-57
2023/01/22 10:57:32;;;;;;;;;;;1.80;99.90;;;;;;5048945;28;20175;-57
2023/01/22 11:00:26;;;;;;;13.38;9.60;;;1.80;99.90;;;;;;5052509;28;19993;-57
2023/01/22 11:02:52;;;;;;;10.20;9.02;;;1.80;99.90;;;;;;5047033;28;20116;-55
2023/01/22 11:05:23;;;;;;;10.30;8.53;;;1.80;99.90;;;;;;5050453;28;20131;-57
2023/01/22 11:08:15;;;;;;;11.52;8.30;;;1.80;99.90;;;;;;5053872;28;20036;-57
2023/01/22 11:10:44;;;;;;;11.32;9.40;;;1.80;99.90;;;;;;5050528;28;20037;-56
2023/01/22 11:13:21;;;;;;;11.43;9.35;;;1.80;99.90;;;;;;5049389;28;20073;-57
2023/01/22 11:16:16;;;;;;;10.73;9.48;;;1.80;99.90;;;;;;5051270;28;20378;-56
2023/01/22 11:19:01;;;;;;;14.27;9.65;;;1.90;99.90;;;;;;5052305;28;20032;-56
2023/01/22 11:21:34;;;;;;;13.35;8.90;;;1.90;99.90;;;;;;5050400;28;20051;-55
2023/01/22 11:24:31;;;;;;;11.07;8.60;;;1.90;99.90;;;;;;5046867;28;20069;-56
2023/01/22 11:27:13;;;;;;;13.25;10.02;;;2.00;99.90;;;;;;5051877;28;20284;-56
2023/01/22 11:30:03;;;;;;;13.07;10.00;;;2.00;99.90;;;;;;5051342;28;20037;-55
2023/01/22 11:32:55;;;;;;;10.73;9.25;;;2.10;99.90;;;;;;5052865;28;20043;-56
2023/01/22 11:35:42;;;;;;;11.23;9.60;;;2.20;99.90;;;;;;5040681;28;20040;-57
2023/01/22 11:38:26;;;;;;;11.55;9.57;;;2.20;99.90;;;;;;5050125;28;20037;-57
2023/01/22 11:41:29;;;;;;;12.15;9.48;;;2.20;99.90;;;;;;5051988;28;20044;-56
2023/01/22 11:44:09;;;;;;;15.65;10.05;;;2.20;99.90;;;;;;5049197;28;20029;-56
2023/01/22 11:47:11;;;;;;;12.50;9.82;;;2.20;99.90;;;;;;5053448;28;20036;-56
2023/01/22 11:49:49;;;;;;;16.02;10.48;;;2.20;99.90;;;;;;5046384;28;20044;-56
2023/01/22 11:52:52;;;;;;;11.88;10.02;;;2.30;99.90;;;;;;5055421;28;20461;-56
2023/01/22 11:55:53;;;;;;;12.73;9.63;;;2.30;99.90;;;;;;5059660;28;20036;-56
2023/01/22 11:58:48;;;;;;;12.38;9.90;;;2.30;99.90;;;;;;5060254;28;20045;-57
2023/01/22 12:01:38;;;;;;;15.77;10.70;;;2.40;99.90;;;;;;5042822;28;20378;-56
2023/01/22 12:04:18;;;;;;;13.52;9.52;;;2.40;99.90;;;;;;5056437;28;20037;-56
2023/01/22 12:07:28;;;;;;;13.63;10.35;;;2.40;99.90;;;;;;5059481;28;20507;-56
2023/01/22 12:10:14;;;;;;;14.70;10.13;;;2.40;99.90;;;;;;5061669;28;20088;-56
2023/01/22 12:13:10;;;;;;;13.35;9.85;;;2.30;99.90;;;;;;5056309;28;20493;-57
2023/01/22 12:15:56;;;;;;;12.90;9.60;;;2.30;99.90;;;;;;5059443;28;20045;-56
2023/01/22 12:18:52;;;;;;;12.70;9.35;;;2.30;99.90;;;;;;5056298;28;20040;-56
2023/01/22 12:21:43;;;;;;;11.27;9.18;;;2.30;99.90;;;;;;5060333;28;21109;-56
2023/01/22 12:24:35;;;;;;;10.75;9.63;;;2.30;99.90;;;;;;5045338;28;20044;-56
2023/01/22 12:27:05;;;;;;;13.63;8.98;;;2.30;99.90;;;;;;5042357;28;20041;-56
2023/01/22 12:29:43;;;;;;;12.77;9.90;;;2.30;99.90;;;;;;5067328;28;20053;-55
2023/01/22 12:32:14;;;;;;;10.82;8.52;;;2.30;99.90;;;;;;5049241;28;20522;-57
2023/01/22 12:35:04;;;;;;;13.00;9.88;;;2.30;99.90;;;;;;5050908;28;20036;-55
2023/01/22 12:38:03;;;;;;;10.93;8.18;;;2.30;99.90;;;;;;5051365;28;20044;-56
2023/01/22 12:40:47;;;;;;;13.25;9.48;;;2.30;99.90;;;;;;5050331;28;20041;-56
2023/01/22 12:43:13;;;;;;;9.98;8.82;;;2.30;99.90;;;;;;5046645;28;20139;-56
2023/01/22 12:45:57;;;;;;;11.00;8.97;;;2.30;99.90;;;;;;5047602;28;20116;-57
2023/01/22 12:48:29;;;;;;;10.30;8.82;;;2.30;99.90;;;;;;5049233;28;20068;-57
2023/01/22 12:50:56;;;;;;;10.45;8.23;;;2.30;99.90;;;;;;5052554;28;20138;-55
2023/01/22 12:53:21;;;;;;;12.25;8.55;;;2.40;99.90;;;;;;5050385;28;20554;-55
2023/01/22 12:56:05;;;;;;;13.27;9.77;;;2.30;99.90;;;;;;5052501;28;20090;-57
2023/01/22 12:58:40;;;;;;;16.08;8.75;;;2.30;99.90;;;;;;5051100;28;20079;-56
2023/01/22 13:01:08;;;;;;;12.07;8.07;;;2.40;99.90;;;;;;5050631;28;20119;-56
2023/01/22 13:03:34;;;;;;;8.82;7.93;;;2.40;99.90;;;;;;5051178;28;20277;-56
2023/01/22 13:06:17;;;;;;;12.15;8.35;;;2.40;99.90;;;;;;5055593;28;20519;-56
2023/01/22 13:08:44;;;;;;;15.50;9.60;;;2.40;99.90;;;;;;5049450;28;20051;-57